createdAt,value
2022-11-18T00:01:15.594Z,7.17
2022-11-18T00:03:43.524Z,7.10
2022-11-18T00:06:18.828Z,6.70
2022-11-18T00:08:45.941Z,7.53
2022-11-18T00:11:15.314Z,7.27
2022-11-18T00:13:42.104Z,7.13
2022-11-18T00:16:12.329Z,8.03
2022-11-18T00:18:39.416Z,7.60
2022-11-18T00:21:08.185Z,6.50
2022-11-18T00:23:35.931Z,6.90
2022-11-18T00:26:04.406Z,6.47
2022-11-18T00:28:32.167Z,6.27
2022-11-18T00:31:10.475Z,6.67
2022-11-18T00:33:38.430Z,6.40
2022-11-18T00:36:07.140Z,6.53
2022-11-18T00:38:33.807Z,6.10
2022-11-18T00:41:02.914Z,4.43
2022-11-18T00:43:30.597Z,4.13
2022-11-18T00:45:57.750Z,5.37
2022-11-18T00:48:25.410Z,6.43
2022-11-18T00:50:54.017Z,6.60
2022-11-18T00:53:22.275Z,6.03
2022-11-18T00:55:49.085Z,6.27
2022-11-18T00:58:15.764Z,5.77
2022-11-18T01:00:44.617Z,6.23
2022-11-18T01:03:12.556Z,5.60
2022-11-18T01:05:39.700Z,6.00
2022-11-18T01:08:08.244Z,5.60
2022-11-18T01:10:35.566Z,5.37
2022-11-18T01:13:03.064Z,5.60
2022-11-18T01:15:29.685Z,6.10
2022-11-18T01:17:56.477Z,5.67
2022-11-18T01:20:23.071Z,5.30
2022-11-18T01:22:49.774Z,5.77
2022-11-18T01:25:16.488Z,5.70
2022-11-18T01:27:43.191Z,5.57
2022-11-18T01:30:10.158Z,5.30
2022-11-18T01:32:36.912Z,5.27
2022-11-18T01:35:03.862Z,6.10
2022-11-18T01:37:30.489Z,7.53
2022-11-18T01:39:57.230Z,7.20
2022-11-18T01:42:24.444Z,7.10
2022-11-18T01:45:30.995Z,6.30
2022-11-18T01:48:07.556Z,7.03
2022-11-18T01:50:37.291Z,7.33
2022-11-18T01:53:09.344Z,6.70
2022-11-18T01:55:38.910Z,7.20
2022-11-18T01:58:20.636Z,7.73
2022-11-18T02:00:47.306Z,7.93
2022-11-18T02:03:14.285Z,9.43
2022-11-18T02:05:42.397Z,9.20
2022-11-18T02:08:09.954Z,8.40
2022-11-18T02:10:36.662Z,8.63
2022-11-18T02:13:03.383Z,9.13
2022-11-18T02:15:41.670Z,8.97
2022-11-18T02:18:38.734Z,9.37
2022-11-18T02:21:19.382Z,7.53
2022-11-18T02:24:11.518Z,8.47
2022-11-18T02:27:02.947Z,7.97
2022-11-18T02:29:42.699Z,8.23
2022-11-18T02:32:21.938Z,7.87
2022-11-18T02:35:10.517Z,8.97
2022-11-18T02:37:48.843Z,8.50
2022-11-18T02:40:35.504Z,8.77
2022-11-18T02:43:08.104Z,8.63
2022-11-18T02:45:36.959Z,9.27
2022-11-18T02:48:09.097Z,9.43
2022-11-18T02:50:38.207Z,9.47
2022-11-18T02:53:07.534Z,9.80
2022-11-18T02:55:39.230Z,9.57
2022-11-18T02:58:06.660Z,9.57
2022-11-18T03:00:33.969Z,8.80
2022-11-18T03:03:00.721Z,9.23
2022-11-18T03:05:41.665Z,9.50
2022-11-18T03:08:17.427Z,9.10
2022-11-18T03:11:16.711Z,9.20
2022-11-18T03:13:52.019Z,9.13
2022-11-18T03:16:26.782Z,9.80
2022-11-18T03:19:05.075Z,9.60
2022-11-18T03:21:37.659Z,9.50
2022-11-18T03:24:17.461Z,9.00
2022-11-18T03:26:51.347Z,9.07
2022-11-18T03:29:24.679Z,9.17
2022-11-18T03:31:59.756Z,9.40
2022-11-18T03:34:38.848Z,9.17
2022-11-18T03:37:12.373Z,8.90
2022-11-18T03:39:44.784Z,8.87
2022-11-18T03:42:36.216Z,8.57
2022-11-18T03:45:10.005Z,8.23
2022-11-18T03:47:42.357Z,9.40
2022-11-18T03:50:20.173Z,9.33
2022-11-18T03:52:48.978Z,8.90
2022-11-18T03:55:23.895Z,8.80
2022-11-18T03:58:19.883Z,8.70
2022-11-18T04:00:51.573Z,8.77
2022-11-18T04:03:18.510Z,9.33
2022-11-18T04:05:46.363Z,9.13
2022-11-18T04:08:23.294Z,8.47
2022-11-18T04:10:56.751Z,8.50
2022-11-18T04:13:35.002Z,9.17
2022-11-18T04:16:01.736Z,8.83
2022-11-18T04:18:28.379Z,7.80
2022-11-18T04:20:55.080Z,8.73
2022-11-18T04:23:21.677Z,8.37
2022-11-18T04:25:48.353Z,8.43
2022-11-18T04:28:15.013Z,8.43
2022-11-18T04:30:41.704Z,8.33
2022-11-18T04:33:08.312Z,8.47
2022-11-18T04:35:35.248Z,8.43
2022-11-18T04:38:01.835Z,8.47
2022-11-18T04:40:28.603Z,9.00
2022-11-18T04:42:55.211Z,9.13
2022-11-18T04:45:21.887Z,8.37
2022-11-18T04:47:48.485Z,8.93
2022-11-18T04:50:15.539Z,9.37
2022-11-18T04:52:43.474Z,10.17
2022-11-18T04:55:10.183Z,10.20
2022-11-18T04:57:36.834Z,9.93
2022-11-18T05:00:04.288Z,10.53
2022-11-18T05:02:38.090Z,10.73
2022-11-18T05:05:07.478Z,11.20
2022-11-18T05:07:34.164Z,10.30
2022-11-18T05:10:00.893Z,10.20
2022-11-18T05:12:29.008Z,10.77
2022-11-18T05:14:55.792Z,11.83
2022-11-18T05:17:23.932Z,10.70
2022-11-18T05:19:50.883Z,11.43
2022-11-18T05:22:20.048Z,11.07
2022-11-18T05:24:46.887Z,11.40
2022-11-18T05:27:15.551Z,10.70
2022-11-18T05:29:42.540Z,10.60
2022-11-18T05:32:09.566Z,9.53
2022-11-18T05:34:36.634Z,8.93
2022-11-18T05:37:03.348Z,9.43
2022-11-18T05:39:33.609Z,9.07
2022-11-18T05:42:00.460Z,8.87
2022-11-18T05:44:27.120Z,8.50
2022-11-18T05:46:53.773Z,9.17
2022-11-18T05:49:21.058Z,9.97
2022-11-18T05:51:47.721Z,10.13
2022-11-18T05:54:18.301Z,8.33
2022-11-18T05:56:45.956Z,7.60
2022-11-18T05:59:13.715Z,6.20
2022-11-18T06:01:54.222Z,6.77
2022-11-18T06:04:34.528Z,5.90
2022-11-18T06:07:08.551Z,3.17
2022-11-18T06:09:38.236Z,3.00
2022-11-18T06:12:06.183Z,3.13
2022-11-18T06:14:43.160Z,2.50
2022-11-18T06:17:16.998Z,2.53
2022-11-18T06:19:44.039Z,2.70
2022-11-18T06:22:10.797Z,2.30
2022-11-18T06:24:38.638Z,2.33
2022-11-18T06:27:05.673Z,2.23
2022-11-18T06:29:32.357Z,2.30
2022-11-18T06:31:58.946Z,2.20
2022-11-18T06:34:25.650Z,2.10
2022-11-18T06:36:52.316Z,2.07
2022-11-18T06:39:19.409Z,2.17
2022-11-18T06:41:46.440Z,2.00
2022-11-18T06:44:13.828Z,2.00
2022-11-18T06:46:40.534Z,2.20
2022-11-18T06:49:07.386Z,2.40
2022-11-18T06:51:34.035Z,2.60
2022-11-18T06:54:02.741Z,2.33
2022-11-18T06:56:31.488Z,3.20
2022-11-18T06:58:59.055Z,3.20
2022-11-18T07:01:28.078Z,2.90
2022-11-18T07:03:55.385Z,3.50
2022-11-18T07:06:24.466Z,3.53
2022-11-18T07:08:51.938Z,4.20
2022-11-18T07:11:21.437Z,3.70
2022-11-18T07:13:48.590Z,3.73
2022-11-18T07:16:18.538Z,4.00
2022-11-18T07:18:46.874Z,4.27
2022-11-18T07:21:18.996Z,4.40
2022-11-18T07:23:46.180Z,4.07
2022-11-18T07:26:13.580Z,4.70
2022-11-18T07:28:40.908Z,4.70
2022-11-18T07:31:17.812Z,4.43
2022-11-18T07:33:45.432Z,4.27
2022-11-18T07:36:18.586Z,4.47
2022-11-18T07:38:46.379Z,4.50
2022-11-18T07:41:21.504Z,4.30
2022-11-18T07:43:48.819Z,4.70
2022-11-18T07:46:18.267Z,5.13
2022-11-18T07:48:46.631Z,4.93
2022-11-18T07:51:15.132Z,4.50
2022-11-18T07:53:42.899Z,4.90
2022-11-18T07:56:10.677Z,4.33
2022-11-18T07:58:37.636Z,5.83
2022-11-18T08:01:09.267Z,5.53
2022-11-18T08:03:36.473Z,5.80
2022-11-18T08:06:04.290Z,5.73
2022-11-18T08:08:31.210Z,6.20
2022-11-18T08:10:59.639Z,5.90
2022-11-18T08:13:27.602Z,5.83
2022-11-18T08:15:55.472Z,6.07
2022-11-18T08:18:26.990Z,6.20
2022-11-18T08:20:53.812Z,7.57
2022-11-18T08:23:20.482Z,7.20
2022-11-18T08:25:47.887Z,7.37
2022-11-18T08:28:15.044Z,7.10
2022-11-18T08:30:41.759Z,7.40
2022-11-18T08:33:08.424Z,7.73
2022-11-18T08:35:35.082Z,7.10
2022-11-18T08:38:01.753Z,7.57
2022-11-18T08:40:28.706Z,8.00
2022-11-18T08:42:55.300Z,8.23
2022-11-18T08:45:22.145Z,8.80
2022-11-18T08:47:48.846Z,8.33
2022-11-18T08:50:15.813Z,8.40
2022-11-18T08:52:42.427Z,8.00
2022-11-18T08:55:09.290Z,7.97
2022-11-18T08:57:35.935Z,8.23
2022-11-18T09:00:04.904Z,8.10
2022-11-18T09:05:22.563Z,8.80
2022-11-18T09:07:49.150Z,9.03
2022-11-18T09:10:16.239Z,8.77
2022-11-18T09:12:42.885Z,8.57
2022-11-18T09:15:14.581Z,9.00
2022-11-18T09:17:41.812Z,8.70
2022-11-18T09:20:09.061Z,8.33
2022-11-18T09:22:37.324Z,9.13
2022-11-18T09:25:04.058Z,8.80
2022-11-18T09:27:31.178Z,8.10
2022-11-18T09:29:57.835Z,7.90
2022-11-18T09:32:24.531Z,7.70
2022-11-18T09:34:51.285Z,8.07
2022-11-18T09:37:18.019Z,8.27
2022-11-18T09:39:44.988Z,8.07
2022-11-18T09:42:11.767Z,8.27
2022-11-18T09:45:01.057Z,7.57
2022-11-18T09:47:30.714Z,8.40
2022-11-18T09:50:14.867Z,8.33
2022-11-18T09:53:06.685Z,8.50
2022-11-18T09:55:37.121Z,8.77
2022-11-18T09:58:05.454Z,9.97
2022-11-18T10:00:32.431Z,9.87
2022-11-18T10:03:01.856Z,9.67
2022-11-18T10:05:31.468Z,9.83
2022-11-18T10:08:33.034Z,10.83
2022-11-18T10:11:13.453Z,11.20
2022-11-18T10:13:52.511Z,11.87
2022-11-18T10:16:25.352Z,10.13
2022-11-18T10:19:00.340Z,11.90
2022-11-18T10:21:53.403Z,11.40
2022-11-18T10:24:24.011Z,11.80
2022-11-18T10:27:00.219Z,10.13
2022-11-18T10:29:27.344Z,10.83
2022-11-18T10:32:17.647Z,12.33
2022-11-18T10:34:53.579Z,11.10
2022-11-18T10:37:45.358Z,11.23
2022-11-18T10:40:24.947Z,10.67
2022-11-18T10:42:51.677Z,11.70
2022-11-18T10:45:21.348Z,11.20
2022-11-18T10:48:06.633Z,11.47
2022-11-18T10:50:57.554Z,10.13
2022-11-18T10:53:34.431Z,10.10
2022-11-18T10:56:07.163Z,10.27
2022-11-18T10:58:42.788Z,9.07
2022-11-18T11:01:23.733Z,10.50
2022-11-18T11:03:58.283Z,9.63
2022-11-18T11:06:27.772Z,10.20
2022-11-18T11:09:00.336Z,10.13
2022-11-18T11:11:40.256Z,9.17
2022-11-18T11:14:31.923Z,9.03
2022-11-18T11:17:10.081Z,9.00
2022-11-18T11:19:45.586Z,8.87
2022-11-18T11:22:12.820Z,9.13
2022-11-18T11:24:39.927Z,8.50
2022-11-18T11:30:11.247Z,9.37
2022-11-18T11:33:11.329Z,9.43
2022-11-18T11:36:12.542Z,10.37
2022-11-18T11:39:15.705Z,9.17
2022-11-18T11:42:19.927Z,8.90
2022-11-18T11:45:07.984Z,9.63
2022-11-18T11:47:43.373Z,8.90
2022-11-18T11:50:12.978Z,9.13
2022-11-18T11:53:02.139Z,9.57
2022-11-18T11:55:45.917Z,9.00
2022-11-18T11:59:03.271Z,8.73
2022-11-18T12:01:58.423Z,9.47
2022-11-18T12:04:28.051Z,9.80
2022-11-18T12:06:56.827Z,10.27
2022-11-18T12:09:43.775Z,9.70
2022-11-18T12:12:13.526Z,9.33
2022-11-18T12:14:49.316Z,9.73
2022-11-18T12:17:24.929Z,9.77
2022-11-18T12:19:51.645Z,10.30
2022-11-18T12:22:18.255Z,9.53
2022-11-18T12:24:44.975Z,9.23
2022-11-18T12:27:23.969Z,8.17
2022-11-18T12:29:50.620Z,8.07
2022-11-18T12:32:36.266Z,7.30
2022-11-18T12:35:12.062Z,6.37
2022-11-18T12:37:46.413Z,6.53
2022-11-18T12:40:31.858Z,7.30
2022-11-18T12:42:58.611Z,7.40
2022-11-18T12:45:40.209Z,6.80
2022-11-18T12:48:33.705Z,7.10
2022-11-18T12:51:23.781Z,6.70
2022-11-18T12:53:54.615Z,7.27
2022-11-18T12:56:22.927Z,6.40
2022-11-18T12:58:55.228Z,7.17
2022-11-18T13:01:25.328Z,7.27
2022-11-18T13:03:52.811Z,7.23
2022-11-18T13:06:30.322Z,7.63
2022-11-18T13:09:07.728Z,8.27
2022-11-18T13:12:01.462Z,7.20
2022-11-18T13:14:35.138Z,7.80
2022-11-18T13:17:02.079Z,7.57
2022-11-18T13:19:28.755Z,6.30
2022-11-18T13:21:58.028Z,6.07
2022-11-18T13:24:24.687Z,4.27
2022-11-18T13:26:59.511Z,4.03
2022-11-18T13:29:30.711Z,3.97
2022-11-18T13:32:16.091Z,3.97
2022-11-18T13:34:56.005Z,4.13
2022-11-18T13:37:24.264Z,4.20
2022-11-18T13:39:51.128Z,3.80
2022-11-18T13:42:27.795Z,4.50
2022-11-18T13:45:02.180Z,4.00
2022-11-18T13:47:41.109Z,4.53
2022-11-18T13:50:10.752Z,4.60
2022-11-18T13:52:42.250Z,4.90
2022-11-18T13:55:19.960Z,4.73
2022-11-18T13:57:56.894Z,4.27
2022-11-18T14:00:27.314Z,4.17
2022-11-18T14:03:00.625Z,3.90
2022-11-18T14:05:27.982Z,4.83
2022-11-18T14:07:59.732Z,4.43
2022-11-18T14:10:43.573Z,4.53
2022-11-18T14:13:22.189Z,5.07
2022-11-18T14:15:49.296Z,5.60
2022-11-18T14:18:20.413Z,5.23
2022-11-18T14:20:52.928Z,5.70
2022-11-18T14:23:32.842Z,5.77
2022-11-18T14:26:02.288Z,5.97
2022-11-18T14:28:31.680Z,5.90
2022-11-18T14:31:02.619Z,5.40
2022-11-18T14:33:36.645Z,4.67
2022-11-18T14:36:10.201Z,4.80
2022-11-18T14:41:33.031Z,4.73
2022-11-18T14:43:59.774Z,4.97
2022-11-18T14:46:26.510Z,4.97
2022-11-18T14:48:53.077Z,4.73
2022-11-18T14:51:19.754Z,4.53
2022-11-18T14:53:46.313Z,5.00
2022-11-18T14:56:32.127Z,5.20
2022-11-18T14:58:59.453Z,4.50
2022-11-18T15:01:30.416Z,4.23
2022-11-18T15:03:57.633Z,4.40
2022-11-18T15:06:24.229Z,3.77
2022-11-18T15:08:52.873Z,4.70
2022-11-18T15:11:20.249Z,5.10
2022-11-18T15:13:47.309Z,4.80
2022-11-18T15:16:20.985Z,4.87
2022-11-18T15:18:50.829Z,4.73
2022-11-18T15:21:17.948Z,4.50
2022-11-18T15:23:44.899Z,4.70
2022-11-18T15:26:26.379Z,4.97
2022-11-18T15:28:57.640Z,4.50
2022-11-18T15:31:25.513Z,4.10
2022-11-18T15:33:52.791Z,4.27
2022-11-18T15:36:28.421Z,4.17
2022-11-18T15:38:55.510Z,3.93
2022-11-18T15:41:24.785Z,4.23
2022-11-18T15:43:52.466Z,4.30
2022-11-18T15:46:21.120Z,4.00
2022-11-18T15:48:50.875Z,4.67
2022-11-18T15:51:17.580Z,4.73
2022-11-18T15:53:44.556Z,5.23
2022-11-18T15:56:20.386Z,4.90
2022-11-18T15:58:57.270Z,4.90
2022-11-18T16:01:32.567Z,5.80
2022-11-18T16:03:59.546Z,5.37
2022-11-18T16:06:26.267Z,5.57
2022-11-18T16:08:58.879Z,5.70
2022-11-18T16:11:26.789Z,5.33
2022-11-18T16:13:53.356Z,5.60
2022-11-18T16:16:24.674Z,5.87
2022-11-18T16:18:55.413Z,6.17
2022-11-18T16:21:22.977Z,6.33
2022-11-18T16:23:49.659Z,6.07
2022-11-18T16:26:17.349Z,6.13
2022-11-18T16:28:44.262Z,6.23
2022-11-18T16:31:10.930Z,5.87
2022-11-18T16:33:37.580Z,6.90
2022-11-18T16:36:04.495Z,6.37
2022-11-18T16:38:31.053Z,6.47
2022-11-18T16:40:58.966Z,6.37
2022-11-18T16:43:27.134Z,6.10
2022-11-18T16:45:54.771Z,5.10
2022-11-18T16:48:22.448Z,5.27
2022-11-18T16:51:07.477Z,5.40
2022-11-18T16:53:34.191Z,5.07
2022-11-18T16:56:03.946Z,4.80
2022-11-18T16:58:30.581Z,4.97
2022-11-18T17:06:30.172Z,5.40
2022-11-18T17:08:58.331Z,6.37
2022-11-18T17:11:25.087Z,6.67
2022-11-18T17:13:56.431Z,5.20
2022-11-18T17:16:25.780Z,4.97
2022-11-18T17:18:57.096Z,4.90
2022-11-18T17:21:24.536Z,4.53
2022-11-18T17:23:51.151Z,5.20
2022-11-18T17:26:20.575Z,5.40
2022-11-18T17:28:47.920Z,5.30
2022-11-18T17:31:17.115Z,5.87
2022-11-18T17:33:44.774Z,6.23
2022-11-18T17:36:14.654Z,6.90
2022-11-18T17:38:43.127Z,7.13
2022-11-18T17:41:11.905Z,7.97
2022-11-18T17:43:38.473Z,8.17
2022-11-18T17:46:05.219Z,9.13
2022-11-18T17:48:32.001Z,9.03
2022-11-18T17:51:06.304Z,10.70
2022-11-18T17:53:33.208Z,11.60
2022-11-18T17:56:03.900Z,12.20
2022-11-18T17:58:30.950Z,12.73
2022-11-18T18:01:09.997Z,13.47
2022-11-18T18:03:37.566Z,12.77
2022-11-18T18:06:05.817Z,15.43
2022-11-18T18:08:32.967Z,14.50
2022-11-18T18:11:08.563Z,16.33
2022-11-18T18:13:37.258Z,16.23
2022-11-18T18:16:03.962Z,15.23
2022-11-18T18:18:30.611Z,15.27
2022-11-18T18:21:01.156Z,16.13
2022-11-18T18:23:27.883Z,16.13
2022-11-18T18:25:54.450Z,17.60
2022-11-18T18:28:21.773Z,19.17
2022-11-18T18:30:57.608Z,17.23
2022-11-18T18:33:24.487Z,18.07
2022-11-18T18:35:51.227Z,16.57
2022-11-18T18:38:17.888Z,17.27
2022-11-18T18:40:44.615Z,16.43
2022-11-18T18:43:11.271Z,17.53
2022-11-18T18:45:37.850Z,18.17
2022-11-18T18:48:04.806Z,18.87
2022-11-18T18:50:32.438Z,18.53
2022-11-18T18:52:59.118Z,18.33
2022-11-18T18:55:25.760Z,20.27
2022-11-18T18:57:52.476Z,18.47
2022-11-18T19:00:19.240Z,19.33
2022-11-18T19:02:49.056Z,18.83
2022-11-18T19:05:15.643Z,20.80
2022-11-18T19:07:42.868Z,20.10
2022-11-18T19:10:09.849Z,21.77
2022-11-18T19:12:36.527Z,20.07
2022-11-18T19:15:03.337Z,20.20
2022-11-18T19:17:30.326Z,20.43
2022-11-18T19:19:57.040Z,21.27
2022-11-18T19:22:24.068Z,21.97
2022-11-18T19:24:51.255Z,21.37
2022-11-18T19:27:19.292Z,23.80
2022-11-18T19:29:46.093Z,23.00
2022-11-18T19:32:13.102Z,22.73
2022-11-18T19:34:39.689Z,23.93
2022-11-18T19:37:06.728Z,22.60
2022-11-18T19:39:33.408Z,23.13
2022-11-18T19:42:00.101Z,23.67
2022-11-18T19:44:26.790Z,23.80
2022-11-18T19:46:53.530Z,22.80
2022-11-18T19:49:20.553Z,22.57
2022-11-18T19:51:47.516Z,22.87
2022-11-18T19:54:14.127Z,22.87
2022-11-18T19:56:40.804Z,23.43
2022-11-18T19:59:07.378Z,23.30
2022-11-18T20:01:34.268Z,22.83
2022-11-18T20:04:01.267Z,22.33
2022-11-18T20:06:27.994Z,22.03
2022-11-18T20:08:55.109Z,22.33
2022-11-18T20:11:22.074Z,23.70
2022-11-18T20:13:48.997Z,22.87
2022-11-18T20:16:20.603Z,22.33
2022-11-18T20:18:51.582Z,23.60
2022-11-18T20:21:19.566Z,22.73
2022-11-18T20:23:48.218Z,25.13
2022-11-18T20:26:17.233Z,21.00
2022-11-18T20:28:45.574Z,22.10
2022-11-18T20:31:16.438Z,23.60
2022-11-18T20:33:46.132Z,23.63
2022-11-18T20:36:15.531Z,21.70
2022-11-18T20:41:27.206Z,23.67
2022-11-18T20:43:53.813Z,22.00
2022-11-18T20:46:21.800Z,21.53
2022-11-18T20:48:49.650Z,22.00
2022-11-18T20:51:21.706Z,23.73
2022-11-18T20:53:48.317Z,21.87
2022-11-18T20:56:18.227Z,23.47
2022-11-18T20:58:45.243Z,21.97
2022-11-18T21:01:18.003Z,23.93
2022-11-18T21:04:12.034Z,22.67
2022-11-18T21:06:39.121Z,20.87
2022-11-18T21:09:06.331Z,22.70
2022-11-18T21:11:36.931Z,22.33
2022-11-18T21:14:04.389Z,22.13
2022-11-18T21:16:31.167Z,22.47
2022-11-18T21:18:57.777Z,23.23
2022-11-18T21:21:24.398Z,20.97
2022-11-18T21:23:55.384Z,22.77
2022-11-18T21:26:27.701Z,22.33
2022-11-18T21:28:56.659Z,21.97
2022-11-18T21:31:24.570Z,21.17
2022-11-18T21:33:52.555Z,22.60
2022-11-18T21:36:20.861Z,22.50
2022-11-18T21:38:48.348Z,21.80
2022-11-18T21:41:15.477Z,23.80
2022-11-18T21:44:04.632Z,23.87
2022-11-18T21:46:30.265Z,22.57
2022-11-18T21:49:00.104Z,23.03
2022-11-18T21:51:27.554Z,22.80
2022-11-18T21:53:54.624Z,24.17
2022-11-18T21:56:23.415Z,24.13
2022-11-18T21:58:50.446Z,23.57
2022-11-18T22:01:19.744Z,23.90
2022-11-18T22:03:55.197Z,25.23
2022-11-18T22:06:24.727Z,23.53
2022-11-18T22:08:51.765Z,23.13
2022-11-18T22:11:19.229Z,21.43
2022-11-18T22:13:45.865Z,24.50
2022-11-18T22:16:18.248Z,24.63
2022-11-18T22:18:50.350Z,24.80
2022-11-18T22:21:22.317Z,24.10
2022-11-18T22:23:49.004Z,24.37
2022-11-18T22:26:18.357Z,24.03
2022-11-18T22:28:46.028Z,22.50
2022-11-18T22:31:18.018Z,23.10
2022-11-18T22:33:44.682Z,22.60
2022-11-18T22:36:13.764Z,23.43
2022-11-18T22:38:42.173Z,23.00
2022-11-18T22:41:13.689Z,22.00
2022-11-18T22:43:40.317Z,20.77
2022-11-18T22:46:08.253Z,22.23
2022-11-18T22:48:35.394Z,22.47
2022-11-18T22:51:04.627Z,20.90
2022-11-18T22:53:32.595Z,22.57
2022-11-18T22:56:07.383Z,21.80
2022-11-18T22:58:34.261Z,21.50
2022-11-18T23:01:08.853Z,21.80
2022-11-18T23:03:35.590Z,20.97
2022-11-18T23:06:03.201Z,20.93
2022-11-18T23:08:35.178Z,21.70
2022-11-18T23:11:08.102Z,20.03
2022-11-18T23:13:39.026Z,21.30
2022-11-18T23:16:05.911Z,21.37
2022-11-18T23:18:32.519Z,24.00
2022-11-18T23:21:01.161Z,20.80
2022-11-18T23:23:28.940Z,21.83
2022-11-18T23:26:03.597Z,21.67
2022-11-18T23:28:30.754Z,21.13
2022-11-18T23:31:08.989Z,21.43
2022-11-18T23:33:36.582Z,21.23
2022-11-18T23:36:03.904Z,21.47
2022-11-18T23:38:32.881Z,20.87
2022-11-18T23:41:02.152Z,23.03
2022-11-18T23:46:56.568Z,21.53
2022-11-18T23:49:23.064Z,22.00
2022-11-18T23:51:49.731Z,21.97
2022-11-18T23:54:16.316Z,22.60
2022-11-18T23:56:42.863Z,22.53
2022-11-18T23:59:09.378Z,23.40
